Time;durP1;ratioP1;P1;durP2;ratioP2;P2;SDS_P1;SDS_P2;PMS_P1;PMS_P2;Temp;Humidity;BMP_temperature;BMP_pressure;BME280_temperature;BME280_humidity;BME280_pressure;Samples;Min_cycle;Max_cycle;Signal;HPM_P1;HPM_P2
2023/03/21 00:03:16;;;;;;;11.18;6.68;;;12.60;99.90;;;;;;10445682;28;20048;-26
2023/03/21 00:08:18;;;;;;;9.45;4.22;;;12.70;99.90;;;;;;10442250;28;20041;-26
2023/03/21 00:13:20;;;;;;;9.10;5.17;;;13.60;99.90;;;;;;10451218;28;20124;-26
2023/03/21 00:18:24;;;;;;;7.50;3.72;;;12.30;99.90;;;;;;10447911;28;20053;-26
2023/03/21 00:23:27;;;;;;;6.00;4.40;;;12.00;99.90;;;;;;10434832;28;20126;-26
2023/03/21 00:28:29;;;;;;;12.00;5.60;;;13.40;99.90;;;;;;10448053;28;20132;-26
2023/03/21 00:33:33;;;;;;;16.42;6.18;;;12.20;99.90;;;;;;10441392;28;20098;-25
2023/03/21 00:38:36;;;;;;;10.05;5.80;;;12.40;99.90;;;;;;10445137;28;20099;-26
2023/03/21 00:43:39;;;;;;;15.40;5.68;;;13.40;99.90;;;;;;10447475;28;20053;-26
2023/03/21 00:48:42;;;;;;;;;;;12.90;99.90;;;;;;10445478;28;20485;-26
2023/03/21 00:53:43;;;;;;;12.18;5.65;;;13.20;99.90;;;;;;10444263;28;20015;-25
2023/03/21 00:58:45;;;;;;;12.82;6.15;;;12.60;99.90;;;;;;10433678;28;20053;-25
2023/03/21 01:04:02;;;;;;;14.57;6.40;;;12.90;99.90;;;;;;10438723;28;20045;-26
2023/03/21 01:09:04;;;;;;;17.60;6.70;;;12.30;99.90;;;;;;10435641;28;20122;-25
2023/03/21 01:14:06;;;;;;;4.35;3.30;;;12.40;99.90;;;;;;10439472;28;20049;-34
2023/03/21 01:19:11;;;;;;;10.87;3.40;;;12.60;99.90;;;;;;10440550;28;20072;-26
2023/03/21 01:24:13;;;;;;;5.40;3.25;;;12.90;99.90;;;;;;10439632;28;20048;-25
2023/03/21 01:29:15;;;;;;;14.02;4.93;;;14.70;99.90;;;;;;10443199;28;20135;-37
2023/03/21 01:34:18;;;;;;;7.27;2.93;;;14.30;99.90;;;;;;10443102;28;20064;-25
2023/03/21 01:39:20;;;;;;;6.95;2.20;;;13.80;99.90;;;;;;10434748;28;20061;-24
2023/03/21 01:44:22;;;;;;;7.70;3.38;;;14.60;99.90;;;;;;10433690;28;20139;-26
2023/03/21 01:49:33;;;;;;;13.33;3.87;;;13.40;99.90;;;;;;10437519;28;20048;-25
2023/03/21 01:54:38;;;;;;;6.95;3.35;;;14.30;99.90;;;;;;10439537;28;20052;-26
2023/03/21 01:59:43;;;;;;;13.88;3.72;;;14.60;99.90;;;;;;10438632;28;20048;-26
2023/03/21 02:04:50;;;;;;;5.78;2.80;;;14.70;99.90;;;;;;10435632;28;20072;-26
2023/03/21 02:09:52;;;;;;;3.78;1.67;;;15.10;99.90;;;;;;10441441;28;20072;-27
2023/03/21 02:14:55;;;;;;;2.88;1.60;;;15.40;99.90;;;;;;10444457;28;20160;-27
2023/03/21 02:20:26;;;;;;;2.78;1.30;;;15.40;99.90;;;;;;10439664;28;20076;-26
2023/03/21 02:26:11;;;;;;;3.28;1.30;;;16.10;99.70;;;;;;10440932;28;20080;-25
2023/03/21 02:31:27;;;;;;;2.72;1.13;;;17.20;94.30;;;;;;10431303;28;20412;-24
2023/03/21 02:36:46;;;;;;;3.60;1.40;;;17.00;95.10;;;;;;10440101;28;20481;-26
2023/03/21 02:41:57;;;;;;;6.57;2.05;;;16.90;95.70;;;;;;10432931;28;20136;-26
2023/03/21 02:47:05;;;;;;;2.40;1.70;;;16.50;96.30;;;;;;10443419;28;20136;-26
2023/03/21 02:52:11;;;;;;;2.67;1.13;;;16.20;98.80;;;;;;10441452;28;20780;-26
2023/03/21 02:57:15;;;;;;;5.28;2.47;;;17.00;95.00;;;;;;10436441;28;20057;-26
2023/03/21 03:02:21;;;;;;;2.08;1.10;;;16.90;93.90;;;;;;10440191;28;20074;-26
2023/03/21 03:07:39;;;;;;;4.95;1.30;;;16.80;95.60;;;;;;10442992;28;20045;-26
2023/03/21 03:12:51;;;;;;;7.68;3.58;;;17.20;93.40;;;;;;10434552;28;20048;-26
2023/03/21 03:18:03;;;;;;;2.42;1.23;;;16.40;91.50;;;;;;10442309;28;20802;-25
2023/03/21 03:23:16;;;;;;;2.58;1.25;;;17.10;94.50;;;;;;10424582;28;20139;-25
2023/03/21 03:28:22;;;;;;;9.35;3.53;;;16.50;97.00;;;;;;10435077;28;20717;-26
2023/03/21 03:33:26;;;;;;;9.57;3.60;;;16.50;96.00;;;;;;10453570;28;20076;-26
2023/03/21 03:38:31;;;;;;;3.63;1.48;;;16.40;95.20;;;;;;10449456;28;20469;-25
2023/03/21 03:43:39;;;;;;;3.22;1.25;;;16.70;95.70;;;;;;10449404;28;20135;-26
2023/03/21 03:48:47;;;;;;;2.75;1.17;;;17.80;90.60;;;;;;10452543;28;20041;-25
2023/03/21 03:53:55;;;;;;;2.53;1.00;;;17.90;90.00;;;;;;10453183;28;20049;-26
2023/03/21 03:58:57;;;;;;;5.30;1.88;;;18.00;88.20;;;;;;10450723;28;20424;-26
2023/03/21 04:03:59;;;;;;;7.50;3.15;;;17.80;90.00;;;;;;10449499;28;20052;-25
2023/03/21 04:09:04;;;;;;;12.60;3.65;;;17.60;90.30;;;;;;10450068;28;20045;-26
2023/03/21 04:14:06;;;;;;;1.77;1.35;;;17.40;91.00;;;;;;10452595;28;20052;-26
2023/03/21 04:19:08;;;;;;;2.60;1.30;;;17.40;91.60;;;;;;10452738;28;20087;-26
2023/03/21 04:24:12;;;;;;;2.13;1.08;;;17.80;90.40;;;;;;10452166;28;20128;-26
2023/03/21 04:29:14;;;;;;;2.15;1.27;;;18.10;87.40;;;;;;10446594;28;20049;-26
2023/03/21 04:34:16;;;;;;;2.80;1.13;;;18.20;85.70;;;;;;10441467;28;20056;-26
2023/03/21 04:39:20;;;;;;;4.70;1.20;;;18.20;85.20;;;;;;10443629;28;20045;-25
2023/03/21 04:44:22;;;;;;;3.13;1.10;;;18.30;84.60;;;;;;10433068;28;20106;-25
2023/03/21 04:49:23;;;;;;;2.92;1.17;;;18.20;84.50;;;;;;10447239;28;20509;-26
2023/03/21 04:54:27;;;;;;;4.50;1.47;;;18.30;84.20;;;;;;10442114;28;20473;-27
2023/03/21 04:59:28;;;;;;;2.60;1.40;;;18.30;83.60;;;;;;10451154;28;20593;-25
2023/03/21 05:04:31;;;;;;;2.15;1.20;;;18.30;83.80;;;;;;10423782;28;20045;-26
2023/03/21 05:09:34;;;;;;;3.28;1.25;;;18.30;83.80;;;;;;10443322;28;20049;-27
2023/03/21 05:14:36;;;;;;;1.27;0.80;;;18.40;82.80;;;;;;10446799;28;20449;-26
2023/03/21 05:19:39;;;;;;;6.55;2.42;;;18.60;82.20;;;;;;10447322;28;20140;-26
2023/03/21 05:24:42;;;;;;;12.52;5.30;;;18.40;83.60;;;;;;10448587;28;20057;-26
2023/03/21 05:29:44;;;;;;;6.43;2.15;;;17.30;82.00;;;;;;10451084;28;20060;-26
2023/03/21 05:34:46;;;;;;;3.85;1.77;;;16.70;96.10;;;;;;10441542;28;20053;-26
2023/03/21 05:39:49;;;;;;;4.67;2.80;;;17.50;92.50;;;;;;10439959;28;20080;-26
2023/03/21 05:44:51;;;;;;;5.50;2.85;;;17.20;92.80;;;;;;10441438;28;20064;-25
2023/03/21 05:49:53;;;;;;;3.17;1.83;;;17.50;91.10;;;;;;10443366;28;20068;-26
2023/03/21 05:54:57;;;;;;;5.35;2.72;;;17.80;91.90;;;;;;10436353;28;20099;-26
2023/03/21 05:59:59;;;;;;;3.55;1.27;;;17.80;91.10;;;;;;10439765;28;20083;-25
2023/03/21 06:05:00;;;;;;;2.88;1.38;;;18.00;91.30;;;;;;10441475;28;20053;-26
2023/03/21 06:10:05;;;;;;;7.63;2.78;;;18.50;88.40;;;;;;10444285;28;20073;-26
2023/03/21 06:15:08;;;;;;;2.65;1.10;;;17.80;90.10;;;;;;10451291;28;20045;-26
2023/03/21 06:20:11;;;;;;;4.82;1.25;;;18.80;85.30;;;;;;10441603;28;20064;-25
2023/03/21 06:25:15;;;;;;;3.15;1.30;;;19.00;83.30;;;;;;10441122;28;20766;-26
2023/03/21 06:30:17;;;;;;;6.78;1.83;;;18.50;88.40;;;;;;10440211;28;20053;-26
2023/03/21 06:35:19;;;;;;;;;;;19.40;80.40;;;;;;10444219;28;20128;-26
2023/03/21 06:40:23;;;;;;;4.40;1.23;;;19.60;79.00;;;;;;10443600;28;19920;-26
2023/03/21 06:45:25;;;;;;;2.60;1.65;;;19.50;80.20;;;;;;10437105;28;20055;-27
2023/03/21 06:50:27;;;;;;;2.53;1.05;;;19.60;79.00;;;;;;10434491;28;20986;-26
2023/03/21 06:55:30;;;;;;;2.85;1.05;;;19.70;78.70;;;;;;10444253;28;20141;-25
2023/03/21 07:00:32;;;;;;;1.27;0.90;;;19.30;81.60;;;;;;10440457;28;20139;-26
2023/03/21 07:15:22;;;;;;;5.25;2.08;;;19.80;77.50;;;;;;10522286;27;1441925;-26
2023/03/21 07:20:25;;;;;;;4.35;1.25;;;19.80;78.00;;;;;;10597282;28;20092;-23
2023/03/21 07:25:27;;;;;;;4.00;1.27;;;19.70;78.00;;;;;;10586760;28;20419;-22
2023/03/21 07:30:30;;;;;;;;;;;19.80;77.20;;;;;;10587105;28;20050;-24
2023/03/21 07:35:32;;;;;;;7.90;1.35;;;19.80;77.30;;;;;;10603768;28;19970;-26
2023/03/21 07:40:34;;;;;;;3.80;1.38;;;19.80;77.40;;;;;;10600172;28;20070;-26
2023/03/21 07:45:38;;;;;;;5.47;1.70;;;19.80;77.10;;;;;;10585729;28;20043;-25
2023/03/21 07:50:40;;;;;;;8.38;1.60;;;19.70;77.60;;;;;;10600448;28;20051;-25
2023/03/21 07:55:42;;;;;;;;;;;19.60;77.60;;;;;;10596410;28;20051;-24
2023/03/21 08:00:45;;;;;;;8.25;1.77;;;19.60;77.40;;;;;;10603318;28;20268;-24
2023/03/21 08:05:47;;;;;;;6.97;1.98;;;19.50;78.90;;;;;;10593894;28;20794;-25
2023/03/21 08:10:49;;;;;;;6.25;2.22;;;19.50;78.70;;;;;;10603100;28;20562;-26
2023/03/21 08:15:52;;;;;;;3.65;1.70;;;19.50;78.50;;;;;;10593560;28;20055;-28
2023/03/21 08:20:55;;;;;;;5.10;1.88;;;19.50;78.70;;;;;;10585510;28;20928;-27
2023/03/21 08:25:57;;;;;;;5.10;1.70;;;19.50;77.90;;;;;;10567201;28;20542;-25
2023/03/21 08:31:01;;;;;;;11.02;2.03;;;19.50;77.90;;;;;;10560513;28;20075;-25
2023/03/21 08:36:04;;;;;;;5.07;1.65;;;19.40;78.50;;;;;;10555911;28;20510;-26
2023/03/21 08:41:06;;;;;;;9.18;3.17;;;19.60;77.30;;;;;;10565217;28;20044;-25
2023/03/21 08:46:10;;;;;;;9.55;1.88;;;19.10;79.30;;;;;;10563023;28;20036;-24
2023/03/21 08:51:11;;;;;;;6.00;1.70;;;19.40;78.20;;;;;;10561898;28;20482;-26
2023/03/21 08:56:13;;;;;;;4.43;1.63;;;19.20;80.10;;;;;;10562316;28;20112;-25
2023/03/21 09:01:17;;;;;;;6.43;2.95;;;19.40;78.40;;;;;;10552941;28;20043;-25
2023/03/21 09:06:19;;;;;;;7.60;2.88;;;19.10;80.90;;;;;;10554631;28;20476;-25
2023/03/21 09:11:21;;;;;;;;;;;18.50;87.80;;;;;;10560697;28;20095;-24
2023/03/21 09:16:24;;;;;;;5.30;1.60;;;19.30;84.30;;;;;;10573041;28;19920;-25
2023/03/21 09:21:28;;;;;;;3.03;1.50;;;19.40;81.20;;;;;;10563630;28;20051;-24
2023/03/21 09:26:30;;;;;;;7.47;1.27;;;19.40;81.00;;;;;;10549824;28;20827;-26
2023/03/21 09:31:33;;;;;;;6.05;1.80;;;19.40;80.70;;;;;;10517060;28;20044;-27
2023/03/21 09:36:36;;;;;;;14.77;4.50;;;19.00;84.30;;;;;;10513999;28;20052;-29
2023/03/21 09:41:54;;;;;;;4.57;1.98;;;18.40;90.70;;;;;;10516827;28;20476;-29
2023/03/21 09:47:05;;;;;;;5.20;2.53;;;19.10;93.60;;;;;;10515472;28;20043;-24
2023/03/21 09:52:18;;;;;;;9.10;3.00;;;19.00;88.20;;;;;;10513784;28;20951;-27
2023/03/21 09:57:29;;;;;;;7.00;2.67;;;18.20;92.00;;;;;;10519704;28;20168;-24
2023/03/21 10:02:38;;;;;;;13.05;5.53;;;18.70;82.10;;;;;;10518140;28;20041;-25
2023/03/21 10:07:43;;;;;;;8.32;3.60;;;15.50;99.90;;;;;;10518511;28;20097;-23
2023/03/21 10:12:46;;;;;;;7.25;2.20;;;17.70;94.50;;;;;;10517865;28;20096;-24
2023/03/21 10:17:59;;;;;;;15.43;6.00;;;18.60;90.90;;;;;;10522553;28;20460;-25
2023/03/21 10:23:05;;;;;;;9.73;4.07;;;18.00;93.00;;;;;;10503584;28;20071;-23
2023/03/21 10:28:12;;;;;;;21.15;7.32;;;17.10;92.20;;;;;;10514067;28;20047;-24
2023/03/21 10:33:19;;;;;;;17.05;7.25;;;14.40;99.90;;;;;;10515026;28;20149;-24
2023/03/21 10:38:24;;;;;;;13.05;4.80;;;14.40;99.90;;;;;;10515782;28;20101;-25
2023/03/21 10:43:34;;;;;;;11.80;5.00;;;13.80;99.90;;;;;;10522850;28;20123;-24
2023/03/21 10:48:39;;;;;;;15.95;6.55;;;13.60;99.90;;;;;;10512839;28;20048;-33
2023/03/21 10:53:46;;;;;;;13.57;5.68;;;13.50;99.90;;;;;;10515800;28;20452;-24
2023/03/21 10:58:51;;;;;;;20.30;7.75;;;13.50;99.90;;;;;;10520356;28;20045;-24
2023/03/21 11:03:58;;;;;;;19.63;7.68;;;13.90;99.90;;;;;;10506621;28;20067;-25
2023/03/21 11:09:04;;;;;;;12.13;6.68;;;13.40;99.90;;;;;;10512485;28;20105;-24
2023/03/21 11:14:20;;;;;;;15.40;5.88;;;13.50;99.90;;;;;;10505102;28;20404;-25
2023/03/21 11:19:32;;;;;;;9.40;5.35;;;13.20;99.90;;;;;;10494591;28;20044;-25
2023/03/21 11:24:35;;;;;;;9.82;4.45;;;14.40;99.90;;;;;;10519720;28;20032;-26
2023/03/21 11:29:40;;;;;;;9.15;4.40;;;14.70;99.90;;;;;;10513144;28;20079;-23
2023/03/21 11:34:47;;;;;;;13.07;3.65;;;14.60;99.90;;;;;;10514893;28;20485;-24
2023/03/21 11:39:55;;;;;;;10.57;3.83;;;14.30;99.90;;;;;;10516480;28;20049;-23
2023/03/21 11:45:01;;;;;;;9.05;4.63;;;14.20;99.90;;;;;;10510944;28;20055;-24
2023/03/21 11:50:24;;;;;;;11.32;5.22;;;15.20;98.80;;;;;;10505573;28;20105;-24
2023/03/21 11:55:36;;;;;;;7.10;3.20;;;14.70;99.90;;;;;;10502932;28;20059;-27
2023/03/21 12:00:45;;;;;;;13.10;5.07;;;15.50;99.90;;;;;;10513674;28;20140;-25
2023/03/21 12:05:54;;;;;;;8.05;4.45;;;14.60;99.90;;;;;;10503362;28;20478;-25
2023/03/21 12:11:07;;;;;;;8.45;4.60;;;14.40;99.90;;;;;;10505592;28;20064;-24
2023/03/21 12:16:28;;;;;;;12.50;4.85;;;14.20;99.90;;;;;;10515423;28;20290;-25
2023/03/21 12:21:36;;;;;;;9.55;4.00;;;14.50;99.90;;;;;;10518822;28;20531;-25
2023/03/21 12:26:44;;;;;;;11.27;4.15;;;15.40;98.90;;;;;;10525550;28;20074;-25
2023/03/21 12:31:58;;;;;;;9.45;4.22;;;14.60;99.90;;;;;;10521345;28;20044;-24
2023/03/21 12:37:11;;;;;;;6.72;3.10;;;15.50;99.90;;;;;;10519361;28;20101;-26
2023/03/21 12:42:44;;;;;;;10.18;3.97;;;16.50;98.10;;;;;;10522112;28;20130;-26
2023/03/21 12:47:49;;;;;;;9.95;4.68;;;16.40;99.80;;;;;;10513332;28;20408;-25
2023/03/21 12:52:57;;;;;;;12.98;4.97;;;15.00;99.90;;;;;;10513924;28;20110;-24
2023/03/21 12:58:04;;;;;;;8.57;4.05;;;14.70;99.90;;;;;;10503755;28;20106;-25
2023/03/21 13:03:13;;;;;;;8.68;3.45;;;15.50;99.90;;;;;;10505809;28;20536;-33
2023/03/21 13:08:24;;;;;;;17.00;4.97;;;14.70;99.90;;;;;;10512134;28;20454;-25
2023/03/21 13:13:31;;;;;;;8.85;4.65;;;14.50;99.90;;;;;;10514641;28;20126;-24
2023/03/21 13:18:50;;;;;;;12.63;5.22;;;14.30;99.90;;;;;;10525630;28;20399;-24
2023/03/21 13:24:04;;;;;;;7.55;4.00;;;14.50;99.90;;;;;;10514023;28;20040;-23
2023/03/21 13:29:25;;;;;;;15.77;4.75;;;15.10;99.90;;;;;;10517059;28;20048;-25
2023/03/21 13:34:27;;;;;;;7.05;3.08;;;14.80;99.90;;;;;;10525782;28;20044;-25
2023/03/21 13:39:31;;;;;;;12.07;4.07;;;14.80;99.90;;;;;;10514495;28;20054;-24
2023/03/21 13:44:41;;;;;;;7.50;4.13;;;14.50;99.90;;;;;;10524908;28;20098;-24
2023/03/21 13:49:43;;;;;;;10.85;4.05;;;14.40;99.90;;;;;;10509856;28;20040;-25
2023/03/21 13:54:52;;;;;;;8.73;2.43;;;14.20;99.90;;;;;;10524336;28;20553;-26
2023/03/21 14:00:20;;;;;;;6.78;3.03;;;15.50;99.90;;;;;;10519198;28;20502;-23
2023/03/21 14:05:25;;;;;;;8.07;4.00;;;14.90;99.90;;;;;;10522178;28;20543;-23
2023/03/21 14:10:34;;;;;;;10.35;3.55;;;14.40;99.90;;;;;;10522408;28;20079;-24
2023/03/21 14:15:44;;;;;;;8.23;4.07;;;14.70;99.90;;;;;;10508905;28;20056;-23
2023/03/21 14:20:52;;;;;;;5.13;2.90;;;14.50;99.90;;;;;;10516789;28;20052;-26
2023/03/21 14:25:56;;;;;;;14.27;4.15;;;14.60;99.90;;;;;;10517912;28;20101;-23
2023/03/21 14:31:00;;;;;;;8.10;3.13;;;13.80;99.90;;;;;;10507306;28;20044;-24
2023/03/21 14:36:07;;;;;;;6.47;2.47;;;14.30;99.90;;;;;;10515961;28;20076;-24
2023/03/21 14:41:22;;;;;;;10.38;2.15;;;14.20;99.90;;;;;;10506056;28;20390;-25
2023/03/21 14:46:25;;;;;;;4.00;2.55;;;14.80;99.90;;;;;;10515940;28;20044;-24
2023/03/21 14:51:28;;;;;;;12.20;2.80;;;14.20;99.90;;;;;;10503417;28;20056;-22
2023/03/21 14:56:36;;;;;;;5.63;2.83;;;14.30;99.90;;;;;;10520819;28;20059;-24
2023/03/21 15:01:39;;;;;;;6.80;1.98;;;14.00;99.90;;;;;;10507980;28;20083;-23
2023/03/21 15:06:55;;;;;;;3.92;1.50;;;15.10;99.90;;;;;;10513201;28;20443;-24
2023/03/21 15:12:00;;;;;;;7.10;1.90;;;15.40;99.90;;;;;;10523326;28;20060;-24
2023/03/21 15:17:06;;;;;;;6.43;2.30;;;14.80;99.90;;;;;;10514472;28;20052;-22
2023/03/21 15:22:14;;;;;;;3.65;2.08;;;14.80;99.90;;;;;;10514372;28;20042;-23
2023/03/21 15:27:20;;;;;;;3.95;2.50;;;14.40;99.90;;;;;;10518900;28;20040;-22
2023/03/21 15:32:25;;;;;;;7.13;2.78;;;14.20;99.90;;;;;;10513693;28;20056;-24
2023/03/21 15:37:28;;;;;;;5.05;2.65;;;14.60;99.90;;;;;;10525240;28;20375;-23
2023/03/21 15:42:38;;;;;;;4.25;1.98;;;14.30;99.90;;;;;;10512657;28;20079;-24
2023/03/21 15:47:42;;;;;;;7.03;2.33;;;14.00;99.90;;;;;;10526687;28;20052;-23
2023/03/21 15:52:45;;;;;;;6.07;2.13;;;14.30;99.90;;;;;;10518440;28;20052;-24
2023/03/21 15:57:48;;;;;;;6.05;2.15;;;14.80;99.90;;;;;;10507169;28;20127;-24
2023/03/21 16:02:58;;;;;;;4.88;2.05;;;13.70;99.90;;;;;;10526708;28;20051;-23
2023/03/21 16:08:05;;;;;;;7.43;1.63;;;13.70;99.90;;;;;;10517758;28;20050;-24
2023/03/21 16:13:12;;;;;;;5.32;1.65;;;14.40;99.90;;;;;;10529899;28;20063;-24
2023/03/21 16:18:16;;;;;;;8.55;1.30;;;14.70;99.90;;;;;;10521829;28;20033;-24
2023/03/21 16:23:18;;;;;;;6.35;2.75;;;13.50;99.90;;;;;;10514005;28;20504;-21
2023/03/21 16:28:21;;;;;;;8.97;1.40;;;15.60;99.90;;;;;;10528582;28;20052;-23
2023/03/21 16:33:24;;;;;;;5.63;1.23;;;14.10;99.90;;;;;;10521367;28;20048;-24
2023/03/21 16:38:26;;;;;;;6.03;1.30;;;15.00;99.90;;;;;;10521083;28;20059;-26
2023/03/21 16:43:31;;;;;;;6.35;1.27;;;15.10;99.90;;;;;;10530604;28;20048;-24
2023/03/21 16:48:33;;;;;;;6.22;1.67;;;15.40;99.90;;;;;;10507413;28;20404;-23
2023/03/21 16:53:35;;;;;;;4.88;0.90;;;15.10;99.90;;;;;;10509295;28;20064;-25
2023/03/21 16:58:39;;;;;;;2.67;0.80;;;15.10;98.60;;;;;;10521091;28;20135;-24
2023/03/21 17:03:41;;;;;;;9.63;1.63;;;16.70;93.60;;;;;;10520942;28;20079;-25
2023/03/21 17:08:43;;;;;;;4.75;0.93;;;15.30;99.90;;;;;;10520235;28;20072;-24
2023/03/21 17:13:47;;;;;;;5.07;1.05;;;15.30;99.90;;;;;;10523347;28;20056;-24
2023/03/21 17:18:50;;;;;;;10.10;1.33;;;15.60;99.90;;;;;;10515890;28;20128;-25
2023/03/21 17:23:52;;;;;;;6.15;1.30;;;14.70;99.90;;;;;;10517860;28;20060;-24
2023/03/21 17:28:56;;;;;;;6.93;1.30;;;15.10;99.90;;;;;;10516640;28;20140;-24
2023/03/21 17:33:58;;;;;;;18.25;2.35;;;15.10;99.90;;;;;;10510635;28;20087;-25
2023/03/21 17:39:00;;;;;;;6.57;1.10;;;13.90;99.90;;;;;;10514650;28;20131;-24
2023/03/21 17:44:04;;;;;;;17.60;2.72;;;14.90;99.90;;;;;;10520316;28;20087;-27
2023/03/21 17:49:06;;;;;;;14.25;1.95;;;13.50;99.90;;;;;;10521219;28;20135;-24
2023/03/21 17:54:08;;;;;;;19.73;2.33;;;13.70;99.90;;;;;;10514721;28;20052;-24
2023/03/21 17:59:13;;;;;;;12.02;1.60;;;13.10;99.90;;;;;;10505908;28;20094;-24
2023/03/21 18:04:15;;;;;;;18.35;2.47;;;13.20;99.90;;;;;;10521290;28;20044;-24
2023/03/21 18:09:18;;;;;;;23.27;3.13;;;13.10;99.90;;;;;;10505643;28;20147;-24
2023/03/21 18:14:21;;;;;;;10.70;2.10;;;12.70;99.90;;;;;;10516462;28;20055;-25
2023/03/21 18:19:23;;;;;;;19.90;3.13;;;13.30;99.90;;;;;;10502122;28;20063;-27
2023/03/21 18:24:26;;;;;;;17.20;2.25;;;12.60;99.90;;;;;;10516477;28;20044;-24
2023/03/21 18:29:29;;;;;;;20.50;2.53;;;13.30;99.90;;;;;;10511660;28;20493;-24
2023/03/21 18:34:31;;;;;;;10.77;1.90;;;12.90;99.90;;;;;;10522434;28;20055;-25
2023/03/21 18:39:33;;;;;;;12.87;1.67;;;12.40;99.90;;;;;;10516848;28;20552;-25
2023/03/21 18:44:38;;;;;;;8.82;1.48;;;12.90;99.90;;;;;;10501836;28;20151;-24
2023/03/21 18:49:40;;;;;;;9.10;2.42;;;13.30;99.90;;;;;;10500805;28;20040;-25
2023/03/21 18:54:42;;;;;;;14.37;1.47;;;13.40;99.90;;;;;;10509615;28;20087;-24
2023/03/21 18:59:46;;;;;;;11.73;1.98;;;12.90;99.90;;;;;;10515167;28;20836;-23
2023/03/21 19:04:48;;;;;;;9.57;1.75;;;13.00;99.90;;;;;;10510120;28;20045;-24
2023/03/21 19:09:50;;;;;;;13.83;1.97;;;12.60;99.90;;;;;;10510980;28;20048;-27
2023/03/21 19:14:54;;;;;;;19.60;3.03;;;13.20;99.90;;;;;;10516084;28;20059;-24
2023/03/21 19:19:56;;;;;;;14.05;1.88;;;12.40;99.90;;;;;;10522417;28;20040;-23
2023/03/21 19:24:58;;;;;;;16.33;2.00;;;13.00;99.90;;;;;;10516411;28;20049;-25
2023/03/21 19:30:01;;;;;;;14.55;2.05;;;12.60;99.90;;;;;;10511960;28;20221;-24
2023/03/21 19:35:03;;;;;;;8.55;1.63;;;12.80;99.90;;;;;;10518844;28;20696;-24
2023/03/21 19:40:10;;;;;;;10.35;1.92;;;14.60;99.90;;;;;;10509353;28;20113;-25
2023/03/21 19:45:13;;;;;;;9.68;1.90;;;16.50;99.90;;;;;;10519183;28;20529;-24
2023/03/21 19:50:16;;;;;;;7.88;1.77;;;16.40;99.90;;;;;;10520393;28;20150;-25
2023/03/21 19:55:18;;;;;;;8.48;1.35;;;14.70;99.90;;;;;;10510281;28;20056;-22
2023/03/21 20:00:22;;;;;;;9.27;1.67;;;15.30;99.90;;;;;;10505687;28;20048;-28
2023/03/21 20:05:25;;;;;;;2.83;1.17;;;16.60;99.90;;;;;;10509515;28;20047;-25
2023/03/21 20:10:27;;;;;;;;;;;17.60;99.50;;;;;;10503144;28;20083;-25
2023/03/21 20:15:31;;;;;;;6.88;1.60;;;16.30;99.90;;;;;;10510599;28;19920;-25
2023/03/21 20:20:33;;;;;;;5.95;1.98;;;16.50;99.90;;;;;;10520690;28;20048;-24
2023/03/21 20:25:35;;;;;;;7.20;1.73;;;16.30;99.90;;;;;;10520879;28;20051;-25
2023/03/21 20:30:43;;;;;;;8.63;1.42;;;17.00;99.90;;;;;;10524353;28;20082;-23
2023/03/21 20:35:47;;;;;;;13.05;2.55;;;17.70;98.40;;;;;;10523002;28;20060;-25
2023/03/21 20:40:49;;;;;;;10.13;1.75;;;15.30;99.90;;;;;;10525353;28;20056;-24
2023/03/21 20:45:59;;;;;;;9.85;1.58;;;15.10;99.90;;;;;;10522923;28;20044;-23
2023/03/21 20:51:03;;;;;;;8.25;2.03;;;14.20;99.90;;;;;;10524939;28;20044;-24
2023/03/21 20:56:06;;;;;;;9.63;2.72;;;15.60;99.90;;;;;;10518926;28;20051;-24
2023/03/21 21:01:14;;;;;;;10.50;1.88;;;14.90;99.90;;;;;;10523306;28;20088;-24
2023/03/21 21:06:18;;;;;;;7.07;1.80;;;14.10;99.90;;;;;;10518043;28;20077;-24
2023/03/21 21:11:20;;;;;;;10.57;1.67;;;14.10;99.90;;;;;;10523528;28;20060;-24
2023/03/21 21:16:23;;;;;;;9.53;1.80;;;14.50;99.90;;;;;;10516283;28;20135;-24
2023/03/21 21:21:26;;;;;;;12.95;2.05;;;14.40;99.90;;;;;;10515968;28;20076;-23
2023/03/21 21:26:29;;;;;;;13.52;1.80;;;14.00;99.90;;;;;;10513517;28;20226;-26
2023/03/21 21:31:33;;;;;;;9.63;1.73;;;14.10;99.90;;;;;;10518170;28;20490;-24
2023/03/21 21:36:35;;;;;;;14.13;2.03;;;14.40;99.90;;;;;;10514701;28;20454;-25
2023/03/21 21:41:37;;;;;;;13.63;2.05;;;13.30;99.90;;;;;;10521809;28;20139;-23
2023/03/21 21:46:41;;;;;;;6.68;1.40;;;12.80;99.90;;;;;;10514078;28;20106;-25
2023/03/21 21:51:44;;;;;;;16.88;2.10;;;12.80;99.90;;;;;;10518458;28;20481;-24
2023/03/21 21:56:47;;;;;;;7.68;1.58;;;12.90;99.90;;;;;;10520358;28;20078;-24
2023/03/21 22:01:50;;;;;;;11.43;2.35;;;14.30;99.90;;;;;;10520085;28;20048;-24
2023/03/21 22:06:52;;;;;;;9.23;1.95;;;13.00;99.90;;;;;;10503368;28;20048;-25
2023/03/21 22:11:55;;;;;;;7.63;1.25;;;13.50;99.90;;;;;;10518760;28;20475;-25
2023/03/21 22:16:58;;;;;;;;;;;13.30;99.90;;;;;;10513363;28;20579;-23
2023/03/21 22:22:00;;;;;;;10.40;1.50;;;12.80;99.90;;;;;;10517916;28;19924;-23
2023/03/21 22:27:02;;;;;;;10.75;1.55;;;13.20;99.90;;;;;;10525988;28;20044;-24
2023/03/21 22:32:06;;;;;;;5.53;1.43;;;12.80;99.90;;;;;;10522070;28;20044;-25
2023/03/21 22:37:08;;;;;;;8.63;1.50;;;12.90;99.90;;;;;;10514554;28;20076;-24
2023/03/21 22:42:10;;;;;;;5.90;1.23;;;13.70;99.90;;;;;;10507193;28;20820;-24
2023/03/21 22:47:13;;;;;;;8.70;1.70;;;13.90;99.90;;;;;;10500450;28;20476;-22
2023/03/21 22:52:15;;;;;;;6.47;1.23;;;14.00;99.90;;;;;;10516674;28;20044;-24
2023/03/21 22:57:18;;;;;;;11.17;2.10;;;15.70;99.90;;;;;;10513580;28;20048;-30
2023/03/21 23:02:22;;;;;;;8.55;1.65;;;16.10;98.00;;;;;;10511446;28;20489;-24
2023/03/21 23:07:23;;;;;;;11.23;1.95;;;17.10;95.40;;;;;;10517899;28;21293;-25
2023/03/21 23:12:26;;;;;;;7.27;1.50;;;14.70;97.10;;;;;;10506012;28;20138;-26
2023/03/21 23:17:29;;;;;;;7.28;1.08;;;15.00;99.90;;;;;;10493643;28;20105;-24
2023/03/21 23:22:32;;;;;;;10.40;2.28;;;15.90;99.90;;;;;;10510461;28;20047;-30
2023/03/21 23:27:35;;;;;;;10.50;1.58;;;15.20;99.90;;;;;;10511955;28;20042;-25
2023/03/21 23:32:38;;;;;;;5.45;1.00;;;13.70;99.90;;;;;;10506091;28;20045;-24
2023/03/21 23:37:41;;;;;;;10.65;1.40;;;13.30;99.90;;;;;;10515314;28;20048;-24
2023/03/21 23:42:44;;;;;;;6.57;1.17;;;13.20;99.90;;;;;;10516866;28;20052;-25
2023/03/21 23:47:48;;;;;;;4.93;1.38;;;14.70;99.90;;;;;;10515125;28;20052;-24
2023/03/21 23:52:50;;;;;;;11.40;1.75;;;16.90;96.10;;;;;;10519836;28;20083;-24
2023/03/21 23:57:58;;;;;;;11.68;1.75;;;15.50;99.90;;;;;;10521297;28;20133;-24
